Time;durP1;ratioP1;P1;durP2;ratioP2;P2;SDS_P1;SDS_P2;PMS_P1;PMS_P2;Temp;Humidity;BMP_temperature;BMP_pressure;BME280_temperature;BME280_humidity;BME280_pressure;Samples;Min_cycle;Max_cycle;Signal;HPM_P1;HPM_P2
2021/03/23 00:00:27;;;;;;;26.37;18.87;;;6.40;99.90;;;;;;5049471;28;20468;-82
2021/03/23 00:02:56;;;;;;;25.73;18.20;;;6.50;99.90;;;;;;5037435;28;20418;-81
2021/03/23 00:05:23;;;;;;;25.30;17.07;;;6.50;99.90;;;;;;5035694;28;20504;-81
2021/03/23 00:07:49;;;;;;;23.27;18.30;;;6.50;99.90;;;;;;5027872;28;20414;-80
2021/03/23 00:10:16;;;;;;;27.77;18.50;;;6.50;99.90;;;;;;5020369;28;20442;-80
2021/03/23 00:12:42;;;;;;;25.60;17.90;;;6.40;99.90;;;;;;5030819;28;20206;-77
2021/03/23 00:15:10;;;;;;;23.03;18.97;;;6.50;99.90;;;;;;5030517;28;20445;-81
2021/03/23 00:17:36;;;;;;;24.20;19.20;;;6.40;99.90;;;;;;5033197;28;20194;-81
2021/03/23 00:20:05;;;;;;;26.03;18.30;;;6.40;99.90;;;;;;5041466;28;20457;-78
2021/03/23 00:22:36;;;;;;;24.97;17.70;;;6.40;99.90;;;;;;5039696;28;20466;-81
2021/03/23 00:25:03;;;;;;;27.30;18.30;;;6.40;99.90;;;;;;5030556;28;20438;-80
2021/03/23 00:27:28;;;;;;;23.23;17.20;;;6.50;99.90;;;;;;5031040;28;20422;-80
2021/03/23 00:29:54;;;;;;;22.60;18.57;;;6.50;99.90;;;;;;5032488;28;20433;-81
2021/03/23 00:32:20;;;;;;;24.00;17.97;;;6.50;99.90;;;;;;5022295;28;20271;-80
2021/03/23 00:34:45;;;;;;;22.50;17.87;;;6.40;99.90;;;;;;5025777;28;20297;-79
2021/03/23 00:37:11;;;;;;;25.93;19.13;;;6.40;99.90;;;;;;5029048;28;20617;-81
2021/03/23 00:39:38;;;;;;;25.00;17.20;;;6.50;99.90;;;;;;5035626;28;20237;-79
2021/03/23 00:42:05;;;;;;;24.37;16.80;;;6.40;99.90;;;;;;5028848;28;20425;-80
2021/03/23 00:44:32;;;;;;;25.47;17.67;;;6.30;99.90;;;;;;5029967;28;20462;-81
2021/03/23 00:46:57;;;;;;;23.07;17.57;;;6.30;99.90;;;;;;5027702;28;20999;-80
2021/03/23 00:49:23;;;;;;;26.30;18.60;;;6.30;99.90;;;;;;5035789;28;20430;-82
2021/03/23 00:51:48;;;;;;;25.00;18.57;;;6.30;99.90;;;;;;5033762;28;20187;-80
2021/03/23 00:54:14;;;;;;;28.70;19.83;;;6.40;99.90;;;;;;5029050;28;20235;-80
2021/03/23 00:56:39;;;;;;;25.57;17.80;;;6.40;99.90;;;;;;5031085;28;20190;-80
2021/03/23 00:59:05;;;;;;;21.70;16.60;;;6.40;99.90;;;;;;5033706;28;20187;-82
2021/03/23 01:01:31;;;;;;;22.20;17.33;;;6.30;99.90;;;;;;5029532;28;20274;-81
2021/03/23 01:03:56;;;;;;;23.50;17.77;;;6.20;99.90;;;;;;5028512;28;20211;-80
2021/03/23 01:06:22;;;;;;;22.03;16.83;;;6.30;99.90;;;;;;5029285;28;20245;-80
2021/03/23 01:08:47;;;;;;;25.57;17.23;;;6.30;99.90;;;;;;5029516;28;20183;-78
2021/03/23 01:11:13;;;;;;;22.60;16.90;;;6.30;99.90;;;;;;5029623;28;20271;-80
2021/03/23 01:13:39;;;;;;;23.27;17.10;;;6.30;99.90;;;;;;5027151;28;20230;-80
2021/03/23 01:16:07;;;;;;;24.30;17.63;;;6.30;99.90;;;;;;5028370;28;20191;-80
2021/03/23 01:18:33;;;;;;;25.20;19.60;;;6.30;99.90;;;;;;5031523;28;20725;-79
2021/03/23 01:20:59;;;;;;;26.10;18.53;;;6.40;99.90;;;;;;5039931;28;20466;-81
2021/03/23 01:23:24;;;;;;;24.00;16.93;;;6.50;99.90;;;;;;5033979;28;20194;-80
2021/03/23 01:25:50;;;;;;;26.37;18.27;;;6.50;99.90;;;;;;5032476;28;20667;-79
2021/03/23 01:28:15;;;;;;;21.57;17.57;;;6.40;99.90;;;;;;5032337;28;20218;-79
2021/03/23 01:30:41;;;;;;;23.13;17.90;;;6.30;99.90;;;;;;5032897;28;20202;-80
2021/03/23 01:33:06;;;;;;;28.17;19.53;;;6.30;99.90;;;;;;5037485;28;20230;-80
2021/03/23 01:35:32;;;;;;;27.87;19.30;;;6.30;99.90;;;;;;5046356;28;20233;-79
2021/03/23 01:37:58;;;;;;;26.73;17.87;;;6.40;99.90;;;;;;5042709;28;20242;-80
2021/03/23 01:40:26;;;;;;;26.03;18.87;;;6.30;99.90;;;;;;5041443;28;20236;-78
2021/03/23 01:42:56;;;;;;;22.70;16.60;;;6.30;99.90;;;;;;5030766;28;20180;-79
2021/03/23 01:45:33;;;;;;;23.50;16.90;;;6.30;99.90;;;;;;5044459;28;20489;-81
2021/03/23 01:48:02;;;;;;;24.27;17.33;;;6.30;99.90;;;;;;5034296;28;20436;-81
2021/03/23 01:50:28;;;;;;;23.63;17.33;;;6.30;99.90;;;;;;5030518;28;20772;-81
2021/03/23 01:53:34;;;;;;;23.70;18.40;;;6.30;99.90;;;;;;5036931;28;20441;-81
2021/03/23 01:56:00;;;;;;;24.77;17.83;;;6.20;99.90;;;;;;4964754;29;20491;-80
2021/03/23 01:58:26;;;;;;;26.90;16.50;;;6.20;99.90;;;;;;4956892;29;20441;-80
2021/03/23 02:00:52;;;;;;;21.00;15.60;;;6.20;99.90;;;;;;4954861;29;20620;-79
2021/03/23 02:03:19;;;;;;;24.80;16.40;;;6.00;99.90;;;;;;4946881;29;20461;-80
2021/03/23 02:05:54;;;;;;;21.33;16.93;;;6.00;99.90;;;;;;4939157;29;20794;-79
2021/03/23 02:08:20;;;;;;;22.30;16.07;;;6.00;99.90;;;;;;4931062;29;20441;-80
2021/03/23 02:10:46;;;;;;;23.90;17.23;;;6.00;99.90;;;;;;4946096;29;20858;-77
2021/03/23 02:13:11;;;;;;;21.53;15.77;;;6.00;99.90;;;;;;4946247;29;20248;-80
2021/03/23 02:15:37;;;;;;;23.10;16.70;;;5.90;99.90;;;;;;4937256;29;20683;-80
2021/03/23 02:18:14;;;;;;;21.50;16.10;;;6.00;99.90;;;;;;4927158;29;20205;-79
2021/03/23 02:21:05;;;;;;;25.80;18.20;;;5.90;99.90;;;;;;4947446;29;20213;-80
2021/03/23 02:23:40;;;;;;;19.50;16.20;;;5.90;99.90;;;;;;4937430;29;20430;-81
2021/03/23 02:26:07;;;;;;;22.90;15.20;;;5.90;99.90;;;;;;4944449;29;21015;-80
2021/03/23 02:28:42;;;;;;;21.17;17.20;;;5.90;99.90;;;;;;4947326;28;20464;-78
2021/03/23 02:31:08;;;;;;;22.07;16.37;;;6.00;99.90;;;;;;5024825;28;20821;-80
2021/03/23 02:33:34;;;;;;;22.00;16.83;;;6.00;99.90;;;;;;5038137;28;20423;-79
2021/03/23 02:35:59;;;;;;;19.97;15.60;;;5.90;99.90;;;;;;5044545;28;20190;-79
2021/03/23 02:38:25;;;;;;;21.03;16.00;;;6.00;99.90;;;;;;5045955;28;20191;-79
2021/03/23 02:40:51;;;;;;;20.40;16.30;;;6.00;99.90;;;;;;5038399;28;20218;-79
2021/03/23 02:43:17;;;;;;;23.53;16.60;;;5.90;99.90;;;;;;5035331;28;20289;-79
2021/03/23 02:45:50;;;;;;;21.17;15.80;;;6.00;99.90;;;;;;5041246;28;20682;-79
2021/03/23 02:48:16;;;;;;;24.67;16.97;;;6.00;99.90;;;;;;5046294;28;20484;-79
2021/03/23 02:50:41;;;;;;;22.87;16.40;;;5.90;99.90;;;;;;5047647;28;20409;-79
2021/03/23 02:53:07;;;;;;;23.90;17.17;;;6.00;99.90;;;;;;5049066;28;20202;-81
2021/03/23 02:55:32;;;;;;;23.83;16.97;;;5.90;99.90;;;;;;5049738;28;20218;-80
2021/03/23 02:57:58;;;;;;;23.83;17.90;;;5.90;99.90;;;;;;5050679;28;20810;-80
2021/03/23 03:00:24;;;;;;;29.00;17.30;;;5.90;99.90;;;;;;5035207;28;20264;-81
2021/03/23 03:02:49;;;;;;;23.57;17.20;;;5.90;99.90;;;;;;5033810;28;20199;-78
2021/03/23 03:05:15;;;;;;;25.20;17.70;;;5.90;99.90;;;;;;5036758;28;20211;-79
2021/03/23 03:07:40;;;;;;;22.10;17.00;;;5.80;99.90;;;;;;5033555;28;20195;-80
2021/03/23 03:10:07;;;;;;;22.70;16.13;;;5.80;99.90;;;;;;5041402;28;20186;-80
2021/03/23 03:12:33;;;;;;;26.33;18.17;;;5.80;99.90;;;;;;5042715;28;20175;-80
2021/03/23 03:14:59;;;;;;;27.30;20.23;;;5.90;99.90;;;;;;5021380;28;20465;-79
2021/03/23 03:17:24;;;;;;;30.67;19.73;;;5.90;99.90;;;;;;5027581;28;20187;-80
2021/03/23 03:19:50;;;;;;;24.50;16.40;;;5.90;99.90;;;;;;5024003;28;20883;-80
2021/03/23 03:22:15;;;;;;;27.77;17.80;;;5.80;99.90;;;;;;5037243;28;20175;-80
2021/03/23 03:24:41;;;;;;;22.67;18.10;;;5.90;99.90;;;;;;5029640;28;20203;-79
2021/03/23 03:27:07;;;;;;;21.97;16.47;;;5.80;99.90;;;;;;5028641;28;20198;-81
2021/03/23 03:29:33;;;;;;;29.10;18.30;;;5.80;99.90;;;;;;5028967;28;20561;-81
2021/03/23 03:31:58;;;;;;;23.40;17.20;;;5.70;99.90;;;;;;5029740;28;20178;-81
2021/03/23 03:34:24;;;;;;;23.77;15.30;;;5.70;99.90;;;;;;5031094;28;20270;-81
2021/03/23 03:36:50;;;;;;;25.47;18.23;;;5.70;99.90;;;;;;5030910;28;20176;-79
2021/03/23 03:39:15;;;;;;;23.40;16.97;;;5.70;99.90;;;;;;5029451;28;20440;-80
2021/03/23 03:41:41;;;;;;;25.90;18.17;;;5.70;99.90;;;;;;5029216;28;20264;-80
2021/03/23 03:44:07;;;;;;;25.63;18.60;;;5.80;99.90;;;;;;5030130;28;20256;-80
2021/03/23 03:46:32;;;;;;;23.60;18.10;;;5.80;99.90;;;;;;5031076;28;20187;-80
2021/03/23 03:48:58;;;;;;;24.97;17.87;;;5.80;99.90;;;;;;5029991;28;20717;-81
2021/03/23 03:51:24;;;;;;;26.00;18.10;;;5.80;99.90;;;;;;5029783;28;20593;-80
2021/03/23 03:53:49;;;;;;;26.03;19.47;;;5.80;99.90;;;;;;5036223;28;20259;-80
2021/03/23 03:56:15;;;;;;;25.17;17.53;;;5.80;99.90;;;;;;5039099;28;20195;-81
2021/03/23 03:58:40;;;;;;;23.23;16.10;;;5.70;99.90;;;;;;5034375;28;20302;-81
2021/03/23 04:01:06;;;;;;;24.37;18.00;;;5.70;99.90;;;;;;5032156;28;20207;-81
2021/03/23 04:03:32;;;;;;;23.80;17.83;;;5.60;99.90;;;;;;5030391;28;20183;-81
2021/03/23 04:05:59;;;;;;;28.47;18.07;;;5.70;99.90;;;;;;5030008;28;20695;-81
2021/03/23 04:08:31;;;;;;;51.37;20.03;;;5.70;99.90;;;;;;5021919;28;20509;-80
2021/03/23 04:10:59;;;;;;;28.43;19.17;;;5.70;99.90;;;;;;5038525;28;20525;-79
2021/03/23 04:13:24;;;;;;;23.67;18.60;;;5.80;99.90;;;;;;5037692;28;21114;-80
2021/03/23 04:15:51;;;;;;;23.63;17.00;;;5.80;99.90;;;;;;5037309;28;20476;-80
2021/03/23 04:18:20;;;;;;;27.90;18.00;;;5.80;99.90;;;;;;5032554;28;20570;-80
2021/03/23 04:20:47;;;;;;;23.67;18.30;;;5.80;99.90;;;;;;5031856;28;20469;-81
2021/03/23 04:23:32;;;;;;;28.47;19.30;;;5.80;99.90;;;;;;5034767;28;20506;-80
2021/03/23 04:25:58;;;;;;;29.43;17.83;;;5.80;99.90;;;;;;5036610;28;20513;-77
2021/03/23 04:28:24;;;;;;;31.43;19.90;;;5.70;99.90;;;;;;5040893;28;20650;-80
2021/03/23 04:30:51;;;;;;;27.13;18.33;;;5.70;99.90;;;;;;5040099;28;20769;-79
2021/03/23 04:33:18;;;;;;;24.80;17.23;;;5.70;99.90;;;;;;5042220;28;20425;-79
2021/03/23 04:35:47;;;;;;;27.13;20.63;;;5.60;99.90;;;;;;5038771;28;20454;-79
2021/03/23 04:38:16;;;;;;;32.03;18.37;;;5.60;99.90;;;;;;5029294;28;20434;-79
2021/03/23 04:40:42;;;;;;;30.23;19.77;;;5.60;99.90;;;;;;5033182;28;20564;-80
2021/03/23 04:43:08;;;;;;;24.57;17.53;;;5.60;99.90;;;;;;5021226;28;20473;-81
2021/03/23 04:45:34;;;;;;;28.90;18.37;;;5.70;99.90;;;;;;5031200;28;20206;-80
2021/03/23 04:47:59;;;;;;;35.90;22.83;;;5.60;99.90;;;;;;5026987;28;20438;-80
2021/03/23 04:50:25;;;;;;;24.60;19.07;;;5.60;99.90;;;;;;5029825;28;20536;-79
2021/03/23 04:52:50;;;;;;;33.07;22.47;;;5.70;99.90;;;;;;5028074;28;20183;-79
2021/03/23 04:55:16;;;;;;;27.50;18.70;;;5.70;99.90;;;;;;5028360;28;20687;-80
2021/03/23 04:57:42;;;;;;;26.33;18.40;;;5.60;99.90;;;;;;5027997;28;20567;-79
2021/03/23 05:00:11;;;;;;;29.20;20.00;;;5.60;99.90;;;;;;5028092;28;20209;-78
2021/03/23 05:02:37;;;;;;;28.83;19.23;;;5.60;99.90;;;;;;5032178;28;20186;-82
2021/03/23 05:05:04;;;;;;;28.00;18.33;;;5.60;99.90;;;;;;5023154;28;20541;-81
2021/03/23 05:07:29;;;;;;;28.03;19.40;;;5.50;99.90;;;;;;5029459;28;20183;-81
2021/03/23 05:09:55;;;;;;;27.33;18.83;;;5.50;99.90;;;;;;5029639;28;20494;-81
2021/03/23 05:12:21;;;;;;;31.63;19.57;;;5.50;99.90;;;;;;5029848;28;20675;-81
2021/03/23 05:14:47;;;;;;;25.33;19.80;;;5.50;99.90;;;;;;5034359;28;20615;-79
2021/03/23 05:17:13;;;;;;;28.63;18.40;;;5.50;99.90;;;;;;5030845;28;20183;-81
2021/03/23 05:19:39;;;;;;;27.33;20.27;;;5.60;99.90;;;;;;5031192;28;20437;-80
2021/03/23 05:22:05;;;;;;;29.20;21.00;;;5.60;99.90;;;;;;5032463;28;20175;-79
2021/03/23 05:24:31;;;;;;;27.40;18.07;;;5.60;99.90;;;;;;5027543;28;20210;-79
2021/03/23 05:26:56;;;;;;;25.10;18.27;;;5.60;99.90;;;;;;5027459;28;20433;-79
2021/03/23 05:29:22;;;;;;;29.03;19.80;;;5.70;99.90;;;;;;5028005;28;20564;-80
2021/03/23 05:31:47;;;;;;;33.70;19.43;;;5.70;99.90;;;;;;5032018;28;20269;-76
2021/03/23 05:34:13;;;;;;;30.03;19.10;;;5.70;99.90;;;;;;5031492;28;20205;-80
2021/03/23 05:36:42;;;;;;;28.63;19.03;;;5.60;99.90;;;;;;5033291;28;20262;-81
2021/03/23 05:39:07;;;;;;;30.13;19.37;;;5.60;99.90;;;;;;5036733;28;20966;-79
2021/03/23 05:41:54;;;;;;;33.17;21.13;;;5.50;99.90;;;;;;5035745;28;20504;-78
2021/03/23 05:45:02;;;;;;;34.40;20.70;;;5.60;99.90;;;;;;5029005;28;20621;-77
2021/03/23 05:47:41;;;;;;;31.50;20.67;;;5.60;99.90;;;;;;5023918;28;20441;-78
2021/03/23 05:50:12;;;;;;;26.00;18.00;;;5.60;99.90;;;;;;5027880;28;21089;-78
2021/03/23 05:52:48;;;;;;;24.30;20.00;;;5.60;99.90;;;;;;5031754;28;20430;-80
2021/03/23 05:55:20;;;;;;;25.10;18.03;;;5.70;99.90;;;;;;5027702;28;20549;-80
2021/03/23 05:57:49;;;;;;;29.67;18.10;;;5.60;99.90;;;;;;5027231;28;20480;-77
2021/03/23 06:00:29;;;;;;;29.47;18.33;;;5.60;99.90;;;;;;5025743;28;20465;-81
2021/03/23 06:03:02;;;;;;;29.70;19.70;;;5.70;99.90;;;;;;5026015;28;20934;-80
2021/03/23 06:05:42;;;;;;;32.30;19.83;;;5.60;99.90;;;;;;5021885;28;20569;-82
2021/03/23 06:08:25;;;;;;;30.90;19.10;;;5.60;99.90;;;;;;5023922;28;20461;-80
2021/03/23 06:11:05;;;;;;;31.93;19.17;;;5.70;99.90;;;;;;5030199;28;20509;-81
2021/03/23 06:13:44;;;;;;;24.67;18.47;;;5.70;99.90;;;;;;5032172;28;20495;-82
2021/03/23 06:16:39;;;;;;;29.77;19.17;;;5.70;99.90;;;;;;5032581;28;20508;-81
2021/03/23 06:19:10;;;;;;;29.70;18.63;;;5.70;99.90;;;;;;5033381;28;20449;-80
2021/03/23 06:21:42;;;;;;;24.33;17.60;;;5.70;99.90;;;;;;5033178;28;20465;-79
2021/03/23 06:24:16;;;;;;;31.60;18.27;;;5.70;99.90;;;;;;5032161;28;20986;-82
2021/03/23 06:27:04;;;;;;;27.90;17.50;;;5.80;99.90;;;;;;5031839;28;20436;-81
2021/03/23 06:29:52;;;;;;;26.93;18.80;;;5.80;99.90;;;;;;5031988;28;20421;-81
2021/03/23 06:32:39;;;;;;;25.67;17.03;;;5.90;99.90;;;;;;5031443;28;20417;-82
2021/03/23 06:35:11;;;;;;;25.57;17.20;;;5.90;99.90;;;;;;5030458;28;20925;-82
2021/03/23 06:37:39;;;;;;;26.47;17.67;;;5.90;99.90;;;;;;5032283;28;20504;-82
2021/03/23 06:40:24;;;;;;;30.67;18.60;;;5.90;99.90;;;;;;5043301;28;20471;-82
2021/03/23 06:42:53;;;;;;;27.17;17.70;;;6.00;99.90;;;;;;5027985;28;20413;-78
2021/03/23 06:45:19;;;;;;;29.30;17.93;;;6.00;99.90;;;;;;5033079;28;20468;-81
2021/03/23 06:47:44;;;;;;;30.40;17.90;;;6.00;99.90;;;;;;5032426;28;20793;-82
2021/03/23 06:50:15;;;;;;;26.37;17.87;;;6.10;99.90;;;;;;5024120;28;20656;-80
2021/03/23 06:52:41;;;;;;;26.83;18.47;;;6.10;99.90;;;;;;5030535;28;20677;-80
2021/03/23 06:55:27;;;;;;;26.10;16.10;;;6.10;99.90;;;;;;5021858;28;20477;-80
2021/03/23 06:57:52;;;;;;;27.60;16.97;;;6.10;99.90;;;;;;5029930;28;20202;-83
2021/03/23 07:00:24;;;;;;;26.43;16.50;;;6.20;99.90;;;;;;5032134;28;21311;-80
2021/03/23 07:02:54;;;;;;;23.67;18.10;;;6.10;99.90;;;;;;5028605;28;20190;-77
2021/03/23 07:05:32;;;;;;;26.30;16.97;;;6.20;99.90;;;;;;5031513;28;20469;-81
2021/03/23 07:08:10;;;;;;;25.70;15.07;;;6.30;99.90;;;;;;5027090;28;20425;-82
2021/03/23 07:10:41;;;;;;;30.97;16.80;;;6.30;99.90;;;;;;5042224;28;20429;-82
2021/03/23 07:13:26;;;;;;;27.33;16.33;;;6.20;99.90;;;;;;5022802;28;20430;-81
2021/03/23 07:16:11;;;;;;;24.23;15.43;;;6.30;99.90;;;;;;5010764;28;20433;-81
2021/03/23 07:18:44;;;;;;;26.43;15.20;;;6.40;99.90;;;;;;5031590;28;20434;-82
2021/03/23 07:21:35;;;;;;;28.27;15.70;;;6.40;99.90;;;;;;5023666;28;20465;-79
2021/03/23 07:24:17;;;;;;;26.43;16.83;;;6.40;99.90;;;;;;5026215;28;20806;-80
2021/03/23 07:26:57;;;;;;;23.87;17.30;;;6.30;99.90;;;;;;5034758;28;20572;-81
2021/03/23 07:29:27;;;;;;;23.30;15.67;;;6.50;99.90;;;;;;5033121;28;20414;-83
2021/03/23 07:32:04;;;;;;;25.30;17.50;;;6.40;99.90;;;;;;5011635;28;20445;-81
2021/03/23 07:35:07;;;;;;;33.30;16.03;;;6.50;99.90;;;;;;5027348;28;20541;-81
2021/03/23 07:37:57;;;;;;;22.20;14.80;;;6.50;99.90;;;;;;4982954;28;20529;-80
2021/03/23 07:40:41;;;;;;;22.50;14.73;;;6.60;99.90;;;;;;4984264;28;20540;-80
2021/03/23 07:43:24;;;;;;;26.13;15.33;;;6.60;99.90;;;;;;4972494;28;20532;-82
2021/03/23 07:46:13;;;;;;;23.33;14.93;;;6.60;99.90;;;;;;4966818;28;20444;-80
2021/03/23 07:49:20;;;;;;;25.07;16.03;;;6.60;99.90;;;;;;4976268;28;20439;-80
2021/03/23 07:51:53;;;;;;;20.47;15.67;;;6.60;99.90;;;;;;4987486;28;20436;-82
2021/03/23 07:54:30;;;;;;;24.93;16.77;;;6.70;99.90;;;;;;4989358;28;21006;-83
2021/03/23 07:57:07;;;;;;;23.80;16.33;;;6.70;99.90;;;;;;4988156;28;20432;-79
2021/03/23 08:00:06;;;;;;;24.40;16.63;;;6.70;99.90;;;;;;4970044;28;20437;-79
2021/03/23 08:02:55;;;;;;;21.47;15.93;;;6.70;99.90;;;;;;4984067;28;21032;-82
2021/03/23 08:05:50;;;;;;;24.43;15.77;;;6.80;99.90;;;;;;4982027;28;20462;-82
2021/03/23 08:08:16;;;;;;;23.40;15.23;;;6.70;99.90;;;;;;4977744;28;20460;-82
2021/03/23 08:11:06;;;;;;;21.47;15.10;;;6.70;99.90;;;;;;4983717;28;21471;-81
2021/03/23 08:13:46;;;;;;;24.37;15.30;;;6.80;99.90;;;;;;4995849;28;20227;-82
2021/03/23 08:16:30;;;;;;;23.60;16.40;;;6.80;99.90;;;;;;5032646;28;20433;-82
2021/03/23 08:19:11;;;;;;;26.43;16.80;;;7.00;99.90;;;;;;5037409;28;20465;-79
2021/03/23 08:21:54;;;;;;;24.87;17.40;;;7.10;99.90;;;;;;5024751;28;20522;-80
2021/03/23 08:24:37;;;;;;;22.80;16.10;;;7.10;99.90;;;;;;5029962;28;20446;-82
2021/03/23 08:27:35;;;;;;;23.90;15.00;;;7.00;99.90;;;;;;5027747;28;20425;-81
2021/03/23 08:30:35;;;;;;;24.43;15.07;;;7.20;99.90;;;;;;5026959;28;20430;-82
2021/03/23 08:33:10;;;;;;;26.93;15.80;;;7.20;99.90;;;;;;5023805;28;20438;-82
2021/03/23 08:35:54;;;;;;;22.70;17.00;;;7.30;99.90;;;;;;5028974;28;20472;-80
2021/03/23 08:38:41;;;;;;;27.20;15.73;;;7.30;99.90;;;;;;5010995;28;20430;-81
2021/03/23 08:41:24;;;;;;;24.40;16.10;;;7.50;99.90;;;;;;5035998;28;20461;-81
2021/03/23 08:43:52;;;;;;;23.27;17.00;;;7.50;99.90;;;;;;5037014;28;20482;-79
2021/03/23 08:46:17;;;;;;;27.90;18.97;;;7.50;99.90;;;;;;5029392;28;20441;-82
2021/03/23 08:48:54;;;;;;;25.83;17.10;;;7.60;99.90;;;;;;5036867;28;20551;-82
2021/03/23 08:51:24;;;;;;;24.60;17.00;;;7.70;99.90;;;;;;5044668;28;20269;-82
2021/03/23 08:53:55;;;;;;;26.07;18.20;;;7.70;99.90;;;;;;5014828;28;20532;-81
2021/03/23 08:56:44;;;;;;;23.90;17.17;;;7.80;99.90;;;;;;5028997;28;20603;-81
2021/03/23 08:59:35;;;;;;;27.43;18.17;;;7.90;99.90;;;;;;5029373;28;20434;-81
2021/03/23 09:02:08;;;;;;;29.73;18.10;;;7.80;99.90;;;;;;5009907;28;20441;-81
2021/03/23 09:04:36;;;;;;;26.73;17.40;;;7.70;99.90;;;;;;5023928;28;20453;-81
2021/03/23 09:07:18;;;;;;;25.77;17.60;;;7.70;99.90;;;;;;5029993;28;20468;-79
2021/03/23 09:09:47;;;;;;;22.70;16.60;;;7.60;99.90;;;;;;5031605;28;20425;-81
2021/03/23 09:12:35;;;;;;;26.33;17.77;;;7.50;99.90;;;;;;5019072;28;20853;-82
2021/03/23 09:15:10;;;;;;;23.40;16.30;;;7.40;99.90;;;;;;5032057;28;20540;-81
2021/03/23 09:18:21;;;;;;;22.17;15.43;;;7.30;99.90;;;;;;5029858;28;20510;-81
2021/03/23 09:20:47;;;;;;;24.37;16.47;;;7.50;99.90;;;;;;5011063;28;21074;-81
2021/03/23 09:26:00;;;;;;;26.33;16.90;;;7.40;99.90;;;;;;5029092;28;20244;-82
2021/03/23 09:28:29;;;;;;;26.27;17.97;;;7.50;99.90;;;;;;5028110;28;20460;-81
2021/03/23 09:31:19;;;;;;;22.90;16.73;;;7.50;99.90;;;;;;5026763;28;20503;-81
2021/03/23 09:33:50;;;;;;;24.77;17.00;;;7.50;99.90;;;;;;5029769;28;20536;-82
2021/03/23 09:36:29;;;;;;;22.57;16.47;;;7.60;99.90;;;;;;5021720;28;20438;-81
2021/03/23 09:39:19;;;;;;;26.60;16.50;;;7.60;99.90;;;;;;5007002;28;20483;-82
2021/03/23 09:41:51;;;;;;;24.20;14.57;;;7.60;99.90;;;;;;5013317;28;20523;-80
2021/03/23 09:44:17;;;;;;;22.30;17.17;;;7.60;99.90;;;;;;5023803;28;20556;-78
2021/03/23 09:46:55;;;;;;;21.60;16.17;;;7.60;99.90;;;;;;5021297;28;20499;-81
2021/03/23 09:49:27;;;;;;;22.63;15.83;;;7.50;99.90;;;;;;5035832;28;20465;-82
2021/03/23 09:52:02;;;;;;;21.67;15.17;;;7.60;99.90;;;;;;5029577;28;20995;-80
2021/03/23 09:54:37;;;;;;;27.07;17.93;;;7.60;99.90;;;;;;5024794;28;20461;-80
2021/03/23 09:57:19;;;;;;;25.47;16.60;;;7.60;99.90;;;;;;5020719;28;20802;-82
2021/03/23 09:59:47;;;;;;;22.87;16.57;;;7.50;99.90;;;;;;5035929;28;20444;-82
2021/03/23 10:02:32;;;;;;;23.40;15.43;;;7.50;99.90;;;;;;5031455;28;20946;-79
2021/03/23 10:05:22;;;;;;;22.73;16.03;;;7.60;99.90;;;;;;5020324;28;20485;-80
2021/03/23 10:07:51;;;;;;;20.97;15.73;;;7.80;99.90;;;;;;5027624;28;20480;-80
2021/03/23 10:10:27;;;;;;;24.10;16.40;;;7.80;99.90;;;;;;5030184;28;20426;-78
2021/03/23 10:13:15;;;;;;;21.50;15.50;;;7.70;99.90;;;;;;5016759;28;20844;-78
2021/03/23 10:15:43;;;;;;;24.00;16.73;;;7.50;99.90;;;;;;5028008;28;20464;-80
2021/03/23 10:18:21;;;;;;;20.70;15.00;;;7.50;99.90;;;;;;5026807;28;20449;-79
2021/03/23 10:21:14;;;;;;;20.30;14.60;;;7.60;99.90;;;;;;5027220;28;20941;-78
2021/03/23 10:23:47;;;;;;;30.90;16.67;;;7.60;99.90;;;;;;5028460;28;20481;-79
2021/03/23 10:26:14;;;;;;;24.00;16.80;;;7.60;99.90;;;;;;5020417;28;20934;-80
2021/03/23 10:28:50;;;;;;;22.60;16.63;;;7.70;99.90;;;;;;5026054;28;20438;-78
2021/03/23 10:31:34;;;;;;;23.83;16.47;;;7.70;99.90;;;;;;5032495;28;20481;-79
2021/03/23 10:34:07;;;;;;;25.67;15.90;;;7.80;99.90;;;;;;5029490;28;20458;-78
2021/03/23 10:37:01;;;;;;;23.37;17.67;;;7.80;99.90;;;;;;5032217;28;20451;-79
2021/03/23 10:39:35;;;;;;;22.10;16.13;;;8.00;99.90;;;;;;5028138;28;20475;-79
2021/03/23 10:42:24;;;;;;;23.60;15.13;;;8.00;99.90;;;;;;5021755;28;20893;-79
2021/03/23 10:45:11;;;;;;;22.00;15.80;;;8.00;99.90;;;;;;5026874;28;20454;-81
2021/03/23 10:47:40;;;;;;;23.10;15.47;;;8.30;99.90;;;;;;5017008;28;21011;-79
2021/03/23 10:50:21;;;;;;;22.70;15.67;;;8.30;99.90;;;;;;5030455;28;20452;-80
2021/03/23 10:52:50;;;;;;;25.37;17.10;;;8.30;99.90;;;;;;5030687;28;20948;-78
2021/03/23 10:55:34;;;;;;;19.67;14.93;;;8.20;99.90;;;;;;5030665;28;20977;-80
2021/03/23 10:58:17;;;;;;;22.40;15.37;;;8.10;99.90;;;;;;5007183;28;20434;-80
2021/03/23 11:00:43;;;;;;;23.63;14.80;;;8.00;99.90;;;;;;5032982;28;20469;-79
2021/03/23 11:03:24;;;;;;;20.63;15.50;;;8.00;99.90;;;;;;5033587;28;20448;-77
2021/03/23 11:05:51;;;;;;;22.03;16.67;;;8.10;99.90;;;;;;5030459;28;20437;-80
2021/03/23 11:08:19;;;;;;;25.60;17.33;;;8.10;99.90;;;;;;5032787;28;20769;-80
2021/03/23 11:10:46;;;;;;;23.00;15.83;;;8.30;99.90;;;;;;5031244;28;20793;-80
2021/03/23 11:13:13;;;;;;;26.20;16.37;;;8.50;99.90;;;;;;5031320;28;20582;-81
2021/03/23 11:15:44;;;;;;;25.63;17.07;;;8.50;99.90;;;;;;5021367;28;20969;-81
2021/03/23 11:18:28;;;;;;;21.80;16.00;;;8.40;99.90;;;;;;5029371;28;20441;-78
2021/03/23 11:20:55;;;;;;;22.87;15.43;;;8.40;99.90;;;;;;5031995;28;20552;-80
2021/03/23 11:23:34;;;;;;;19.73;14.30;;;8.30;99.90;;;;;;5034659;28;20441;-82
2021/03/23 11:26:00;;;;;;;19.43;15.33;;;8.30;99.90;;;;;;5029684;28;20414;-82
2021/03/23 11:28:29;;;;;;;21.80;16.00;;;8.20;99.90;;;;;;5021304;28;20430;-77
2021/03/23 11:30:54;;;;;;;21.60;15.97;;;8.20;99.90;;;;;;5029168;28;20446;-79
2021/03/23 11:33:20;;;;;;;21.50;16.30;;;8.10;99.90;;;;;;5030198;28;21040;-77
2021/03/23 11:35:50;;;;;;;21.03;15.63;;;8.20;99.90;;;;;;5023945;28;20203;-77
2021/03/23 11:38:17;;;;;;;23.13;15.40;;;8.40;99.90;;;;;;5029974;28;20258;-78
2021/03/23 11:40:42;;;;;;;23.20;16.37;;;8.50;99.90;;;;;;5032571;28;20904;-78
2021/03/23 11:43:30;;;;;;;19.80;15.00;;;8.50;99.90;;;;;;5029532;28;20512;-80
2021/03/23 11:46:03;;;;;;;24.00;16.43;;;8.70;99.90;;;;;;5021789;28;20201;-81
2021/03/23 11:48:33;;;;;;;24.77;16.77;;;8.70;99.90;;;;;;5031249;28;21078;-78
2021/03/23 11:51:01;;;;;;;22.23;16.00;;;8.80;99.90;;;;;;5023337;28;20492;-82
2021/03/23 11:53:27;;;;;;;24.97;16.43;;;8.90;99.90;;;;;;5033588;28;20426;-81
2021/03/23 11:55:53;;;;;;;27.57;16.93;;;9.10;99.90;;;;;;5032284;28;20421;-79
2021/03/23 11:58:19;;;;;;;24.67;17.60;;;9.10;99.90;;;;;;5030011;28;20210;-81
2021/03/23 12:00:45;;;;;;;22.40;16.40;;;9.10;99.90;;;;;;5030136;28;20576;-80
2021/03/23 12:03:12;;;;;;;22.77;17.60;;;9.20;99.90;;;;;;5029401;28;20433;-80
2021/03/23 12:05:40;;;;;;;21.60;16.50;;;9.30;99.90;;;;;;5029916;28;20749;-78
2021/03/23 12:08:32;;;;;;;25.47;16.87;;;9.10;99.90;;;;;;5030412;28;20441;-80
2021/03/23 12:11:07;;;;;;;24.83;16.90;;;9.00;99.90;;;;;;5028007;28;20874;-78
2021/03/23 12:13:53;;;;;;;21.90;16.60;;;9.00;99.90;;;;;;5011008;28;20523;-80
2021/03/23 12:16:22;;;;;;;21.63;16.27;;;9.00;99.90;;;;;;5026182;28;21005;-81
2021/03/23 12:19:02;;;;;;;22.67;16.83;;;9.00;99.90;;;;;;5019863;28;20425;-80
2021/03/23 12:21:29;;;;;;;22.60;16.63;;;9.00;99.90;;;;;;5004043;28;20547;-78
2021/03/23 12:23:55;;;;;;;20.20;15.87;;;9.00;99.90;;;;;;5021053;28;20444;-76
2021/03/23 12:26:21;;;;;;;24.90;16.80;;;9.10;99.90;;;;;;5018995;28;20495;-79
2021/03/23 12:28:47;;;;;;;24.67;17.00;;;9.20;99.90;;;;;;5022620;28;20421;-79
2021/03/23 12:31:14;;;;;;;21.13;16.60;;;9.20;99.90;;;;;;5033715;28;20422;-80
2021/03/23 12:33:40;;;;;;;24.43;17.10;;;9.30;99.90;;;;;;5016327;28;20226;-79
2021/03/23 12:36:06;;;;;;;25.63;17.37;;;9.40;99.90;;;;;;5034057;28;20458;-80
2021/03/23 12:38:35;;;;;;;24.00;17.70;;;9.60;99.90;;;;;;5032919;28;20191;-81
2021/03/23 12:41:01;;;;;;;24.17;17.70;;;9.80;99.90;;;;;;5033684;28;20457;-77
2021/03/23 12:43:27;;;;;;;29.17;18.57;;;10.00;99.90;;;;;;5031102;28;20431;-81
2021/03/23 12:45:57;;;;;;;24.83;19.33;;;9.90;99.90;;;;;;5018793;28;20252;-80
2021/03/23 12:48:24;;;;;;;24.60;18.50;;;9.70;99.90;;;;;;5029097;28;20183;-80
2021/03/23 12:50:53;;;;;;;24.67;18.50;;;9.80;99.90;;;;;;5028566;28;20434;-79
2021/03/23 12:53:20;;;;;;;27.87;18.70;;;9.90;99.90;;;;;;5016195;28;20425;-80
2021/03/23 12:55:53;;;;;;;28.83;20.13;;;10.10;99.90;;;;;;5029029;28;20433;-79
2021/03/23 12:58:22;;;;;;;22.57;17.70;;;10.40;99.90;;;;;;5028575;28;20451;-78
2021/03/23 13:00:48;;;;;;;22.03;16.80;;;10.50;99.90;;;;;;5018239;28;20524;-81
2021/03/23 13:03:16;;;;;;;23.90;19.87;;;10.50;99.90;;;;;;5027947;28;20957;-79